sensor_id;sensor_type;location;lat;lon;timestamp;P1;durP1;ratioP1;P2;durP2;ratioP2
30303;SDS011;17112;48.636;10.152;2023-04-15T00:01:23;3.97;;;1.58;;
30303;SDS011;17112;48.636;10.152;2023-04-15T00:03:50;2.08;;;1.40;;
30303;SDS011;17112;48.636;10.152;2023-04-15T00:06:17;2.58;;;1.33;;
30303;SDS011;17112;48.636;10.152;2023-04-15T00:08:43;2.10;;;1.30;;
30303;SDS011;17112;48.636;10.152;2023-04-15T00:11:09;2.50;;;1.38;;
30303;SDS011;17112;48.636;10.152;2023-04-15T00:13:36;4.07;;;1.42;;
30303;SDS011;17112;48.636;10.152;2023-04-15T00:16:03;2.40;;;1.35;;
30303;SDS011;17112;48.636;10.152;2023-04-15T00:18:30;5.38;;;1.67;;
30303;SDS011;17112;48.636;10.152;2023-04-15T00:20:56;4.85;;;1.50;;
30303;SDS011;17112;48.636;10.152;2023-04-15T00:23:22;5.57;;;1.77;;
30303;SDS011;17112;48.636;10.152;2023-04-15T00:25:48;1.90;;;1.48;;
30303;SDS011;17112;48.636;10.152;2023-04-15T00:28:14;2.70;;;1.48;;
30303;SDS011;17112;48.636;10.152;2023-04-15T00:30:40;2.13;;;1.15;;
30303;SDS011;17112;48.636;10.152;2023-04-15T00:33:06;3.88;;;1.40;;
30303;SDS011;17112;48.636;10.152;2023-04-15T00:35:32;4.90;;;1.48;;
30303;SDS011;17112;48.636;10.152;2023-04-15T00:37:58;1.73;;;1.20;;
30303;SDS011;17112;48.636;10.152;2023-04-15T00:40:24;5.80;;;1.10;;
30303;SDS011;17112;48.636;10.152;2023-04-15T00:42:50;5.60;;;1.23;;
30303;SDS011;17112;48.636;10.152;2023-04-15T00:45:16;2.40;;;1.50;;
30303;SDS011;17112;48.636;10.152;2023-04-15T00:47:42;2.85;;;1.10;;
30303;SDS011;17112;48.636;10.152;2023-04-15T00:50:09;3.75;;;1.33;;
30303;SDS011;17112;48.636;10.152;2023-04-15T00:52:36;3.47;;;1.40;;
30303;SDS011;17112;48.636;10.152;2023-04-15T00:55:03;4.13;;;1.40;;
30303;SDS011;17112;48.636;10.152;2023-04-15T00:57:29;2.53;;;1.48;;
30303;SDS011;17112;48.636;10.152;2023-04-15T00:59:55;3.65;;;1.30;;
30303;SDS011;17112;48.636;10.152;2023-04-15T01:02:22;1.67;;;1.10;;
30303;SDS011;17112;48.636;10.152;2023-04-15T01:04:48;1.83;;;1.20;;
30303;SDS011;17112;48.636;10.152;2023-04-15T01:07:13;4.97;;;1.15;;
30303;SDS011;17112;48.636;10.152;2023-04-15T01:09:39;2.20;;;1.30;;
30303;SDS011;17112;48.636;10.152;2023-04-15T01:12:06;3.03;;;1.13;;
30303;SDS011;17112;48.636;10.152;2023-04-15T01:14:34;2.90;;;1.38;;
30303;SDS011;17112;48.636;10.152;2023-04-15T01:17:00;2.30;;;1.23;;
30303;SDS011;17112;48.636;10.152;2023-04-15T01:19:26;1.88;;;1.10;;
30303;SDS011;17112;48.636;10.152;2023-04-15T01:21:52;6.13;;;1.30;;
30303;SDS011;17112;48.636;10.152;2023-04-15T01:24:18;1.35;;;1.00;;
30303;SDS011;17112;48.636;10.152;2023-04-15T01:26:44;2.08;;;1.33;;
30303;SDS011;17112;48.636;10.152;2023-04-15T01:29:10;1.90;;;1.15;;
30303;SDS011;17112;48.636;10.152;2023-04-15T01:31:36;5.55;;;1.35;;
30303;SDS011;17112;48.636;10.152;2023-04-15T01:34:02;3.50;;;1.45;;
30303;SDS011;17112;48.636;10.152;2023-04-15T01:36:28;3.35;;;1.23;;
30303;SDS011;17112;48.636;10.152;2023-04-15T01:38:55;4.15;;;2.53;;
30303;SDS011;17112;48.636;10.152;2023-04-15T01:41:24;2.72;;;2.00;;
30303;SDS011;17112;48.636;10.152;2023-04-15T01:43:51;3.70;;;1.75;;
30303;SDS011;17112;48.636;10.152;2023-04-15T01:46:17;5.07;;;2.10;;
30303;SDS011;17112;48.636;10.152;2023-04-15T01:48:43;2.00;;;1.58;;
30303;SDS011;17112;48.636;10.152;2023-04-15T01:51:08;3.20;;;1.80;;
30303;SDS011;17112;48.636;10.152;2023-04-15T01:53:34;6.50;;;1.70;;
30303;SDS011;17112;48.636;10.152;2023-04-15T01:55:59;3.25;;;1.40;;
30303;SDS011;17112;48.636;10.152;2023-04-15T01:58:25;3.10;;;1.30;;
30303;SDS011;17112;48.636;10.152;2023-04-15T02:00:51;2.35;;;1.30;;
30303;SDS011;17112;48.636;10.152;2023-04-15T02:03:17;2.58;;;1.20;;
30303;SDS011;17112;48.636;10.152;2023-04-15T02:05:43;2.70;;;1.35;;
30303;SDS011;17112;48.636;10.152;2023-04-15T02:08:08;2.10;;;1.10;;
30303;SDS011;17112;48.636;10.152;2023-04-15T02:10:34;3.47;;;1.42;;
30303;SDS011;17112;48.636;10.152;2023-04-15T02:13:00;1.42;;;0.98;;
30303;SDS011;17112;48.636;10.152;2023-04-15T02:15:25;4.63;;;1.33;;
30303;SDS011;17112;48.636;10.152;2023-04-15T02:17:51;2.95;;;1.20;;
30303;SDS011;17112;48.636;10.152;2023-04-15T02:20:19;2.85;;;1.42;;
30303;SDS011;17112;48.636;10.152;2023-04-15T02:22:45;4.70;;;2.00;;
30303;SDS011;17112;48.636;10.152;2023-04-15T02:25:12;2.38;;;1.48;;
30303;SDS011;17112;48.636;10.152;2023-04-15T02:27:38;5.07;;;1.50;;
30303;SDS011;17112;48.636;10.152;2023-04-15T02:30:04;3.83;;;1.73;;
30303;SDS011;17112;48.636;10.152;2023-04-15T02:32:31;2.60;;;1.60;;
30303;SDS011;17112;48.636;10.152;2023-04-15T02:35:01;3.47;;;1.55;;
30303;SDS011;17112;48.636;10.152;2023-04-15T02:37:30;5.07;;;2.05;;
30303;SDS011;17112;48.636;10.152;2023-04-15T02:39:56;3.25;;;1.83;;
30303;SDS011;17112;48.636;10.152;2023-04-15T02:42:22;3.42;;;1.92;;
30303;SDS011;17112;48.636;10.152;2023-04-15T02:44:47;3.53;;;1.88;;
30303;SDS011;17112;48.636;10.152;2023-04-15T02:47:13;4.40;;;1.70;;
30303;SDS011;17112;48.636;10.152;2023-04-15T02:49:40;5.88;;;2.10;;
30303;SDS011;17112;48.636;10.152;2023-04-15T02:52:05;2.50;;;1.75;;
30303;SDS011;17112;48.636;10.152;2023-04-15T02:54:31;4.45;;;1.73;;
30303;SDS011;17112;48.636;10.152;2023-04-15T02:56:58;4.40;;;1.73;;
30303;SDS011;17112;48.636;10.152;2023-04-15T02:59:24;3.58;;;1.83;;
30303;SDS011;17112;48.636;10.152;2023-04-15T03:01:49;3.67;;;1.73;;
30303;SDS011;17112;48.636;10.152;2023-04-15T03:04:15;4.38;;;1.90;;
30303;SDS011;17112;48.636;10.152;2023-04-15T03:06:41;3.40;;;1.58;;
30303;SDS011;17112;48.636;10.152;2023-04-15T03:09:06;2.75;;;1.75;;
30303;SDS011;17112;48.636;10.152;2023-04-15T03:11:32;2.50;;;1.55;;
30303;SDS011;17112;48.636;10.152;2023-04-15T03:13:59;3.00;;;1.83;;
30303;SDS011;17112;48.636;10.152;2023-04-15T03:16:25;3.03;;;1.50;;
30303;SDS011;17112;48.636;10.152;2023-04-15T03:18:51;2.97;;;1.42;;
30303;SDS011;17112;48.636;10.152;2023-04-15T03:21:16;6.00;;;2.13;;
30303;SDS011;17112;48.636;10.152;2023-04-15T03:23:43;1.98;;;1.20;;
30303;SDS011;17112;48.636;10.152;2023-04-15T03:26:09;10.73;;;1.50;;
30303;SDS011;17112;48.636;10.152;2023-04-15T03:28:57;2.35;;;1.30;;
30303;SDS011;17112;48.636;10.152;2023-04-15T03:31:22;4.18;;;1.25;;
30303;SDS011;17112;48.636;10.152;2023-04-15T03:33:48;3.53;;;1.73;;
30303;SDS011;17112;48.636;10.152;2023-04-15T03:36:14;4.50;;;1.60;;
30303;SDS011;17112;48.636;10.152;2023-04-15T03:38:40;1.70;;;1.38;;
30303;SDS011;17112;48.636;10.152;2023-04-15T03:41:06;2.35;;;1.40;;
30303;SDS011;17112;48.636;10.152;2023-04-15T03:43:33;2.65;;;1.20;;
30303;SDS011;17112;48.636;10.152;2023-04-15T03:45:59;6.20;;;1.60;;
30303;SDS011;17112;48.636;10.152;2023-04-15T03:48:25;2.13;;;1.40;;
30303;SDS011;17112;48.636;10.152;2023-04-15T03:50:51;1.70;;;1.38;;
30303;SDS011;17112;48.636;10.152;2023-04-15T03:53:17;4.75;;;1.75;;
30303;SDS011;17112;48.636;10.152;2023-04-15T03:55:42;4.93;;;1.58;;
30303;SDS011;17112;48.636;10.152;2023-04-15T03:58:08;3.72;;;1.70;;
30303;SDS011;17112;48.636;10.152;2023-04-15T04:00:36;3.58;;;1.50;;
30303;SDS011;17112;48.636;10.152;2023-04-15T04:03:02;1.38;;;1.27;;
30303;SDS011;17112;48.636;10.152;2023-04-15T04:05:28;2.72;;;1.40;;
30303;SDS011;17112;48.636;10.152;2023-04-15T04:07:55;2.50;;;1.48;;
30303;SDS011;17112;48.636;10.152;2023-04-15T04:10:20;3.13;;;1.23;;
30303;SDS011;17112;48.636;10.152;2023-04-15T04:12:46;2.35;;;1.50;;
30303;SDS011;17112;48.636;10.152;2023-04-15T04:15:12;5.07;;;1.50;;
30303;SDS011;17112;48.636;10.152;2023-04-15T04:17:37;2.63;;;1.63;;
30303;SDS011;17112;48.636;10.152;2023-04-15T04:20:03;4.75;;;1.55;;
30303;SDS011;17112;48.636;10.152;2023-04-15T04:22:29;4.55;;;1.48;;
30303;SDS011;17112;48.636;10.152;2023-04-15T04:24:55;4.20;;;1.50;;
30303;SDS011;17112;48.636;10.152;2023-04-15T04:27:23;2.00;;;1.65;;
30303;SDS011;17112;48.636;10.152;2023-04-15T04:29:49;7.60;;;1.90;;
30303;SDS011;17112;48.636;10.152;2023-04-15T04:32:15;3.80;;;1.80;;
30303;SDS011;17112;48.636;10.152;2023-04-15T04:34:40;3.25;;;1.63;;
30303;SDS011;17112;48.636;10.152;2023-04-15T04:37:06;5.35;;;1.90;;
30303;SDS011;17112;48.636;10.152;2023-04-15T04:39:32;4.25;;;1.85;;
30303;SDS011;17112;48.636;10.152;2023-04-15T04:41:57;3.00;;;1.70;;
30303;SDS011;17112;48.636;10.152;2023-04-15T04:44:23;10.10;;;1.73;;
30303;SDS011;17112;48.636;10.152;2023-04-15T04:46:49;6.63;;;1.75;;
30303;SDS011;17112;48.636;10.152;2023-04-15T04:49:14;2.33;;;1.98;;
30303;SDS011;17112;48.636;10.152;2023-04-15T04:51:40;3.03;;;1.92;;
30303;SDS011;17112;48.636;10.152;2023-04-15T04:54:06;3.58;;;1.80;;
30303;SDS011;17112;48.636;10.152;2023-04-15T04:56:31;4.90;;;2.00;;
30303;SDS011;17112;48.636;10.152;2023-04-15T04:58:58;3.70;;;1.90;;
30303;SDS011;17112;48.636;10.152;2023-04-15T05:01:24;7.00;;;2.00;;
30303;SDS011;17112;48.636;10.152;2023-04-15T05:03:51;2.53;;;1.55;;
30303;SDS011;17112;48.636;10.152;2023-04-15T05:06:17;2.60;;;1.90;;
30303;SDS011;17112;48.636;10.152;2023-04-15T05:08:42;7.07;;;1.70;;
30303;SDS011;17112;48.636;10.152;2023-04-15T05:11:08;2.05;;;1.58;;
30303;SDS011;17112;48.636;10.152;2023-04-15T05:13:34;3.00;;;1.73;;
30303;SDS011;17112;48.636;10.152;2023-04-15T05:16:02;3.00;;;1.98;;
30303;SDS011;17112;48.636;10.152;2023-04-15T05:18:31;6.10;;;2.35;;
30303;SDS011;17112;48.636;10.152;2023-04-15T05:20:58;5.30;;;2.50;;
30303;SDS011;17112;48.636;10.152;2023-04-15T05:23:23;3.05;;;2.10;;
30303;SDS011;17112;48.636;10.152;2023-04-15T05:25:49;1.90;;;1.58;;
30303;SDS011;17112;48.636;10.152;2023-04-15T05:28:15;5.13;;;1.80;;
30303;SDS011;17112;48.636;10.152;2023-04-15T05:30:41;3.97;;;2.10;;
30303;SDS011;17112;48.636;10.152;2023-04-15T05:33:06;4.25;;;2.35;;
30303;SDS011;17112;48.636;10.152;2023-04-15T05:35:33;7.13;;;2.15;;
30303;SDS011;17112;48.636;10.152;2023-04-15T05:37:58;3.03;;;2.08;;
30303;SDS011;17112;48.636;10.152;2023-04-15T05:40:24;4.78;;;2.08;;
30303;SDS011;17112;48.636;10.152;2023-04-15T05:42:50;3.92;;;2.10;;
30303;SDS011;17112;48.636;10.152;2023-04-15T05:45:16;3.33;;;2.05;;
30303;SDS011;17112;48.636;10.152;2023-04-15T05:47:41;7.68;;;2.00;;
30303;SDS011;17112;48.636;10.152;2023-04-15T05:50:07;2.90;;;1.98;;
30303;SDS011;17112;48.636;10.152;2023-04-15T05:52:33;4.47;;;2.50;;
30303;SDS011;17112;48.636;10.152;2023-04-15T05:54:59;7.43;;;2.60;;
30303;SDS011;17112;48.636;10.152;2023-04-15T05:57:25;3.65;;;2.60;;
30303;SDS011;17112;48.636;10.152;2023-04-15T05:59:51;4.65;;;2.50;;
30303;SDS011;17112;48.636;10.152;2023-04-15T06:02:17;5.50;;;2.53;;
30303;SDS011;17112;48.636;10.152;2023-04-15T06:04:42;3.13;;;2.47;;
30303;SDS011;17112;48.636;10.152;2023-04-15T06:07:08;5.28;;;2.53;;
30303;SDS011;17112;48.636;10.152;2023-04-15T06:09:34;4.63;;;2.83;;
30303;SDS011;17112;48.636;10.152;2023-04-15T06:12:00;7.18;;;3.42;;
30303;SDS011;17112;48.636;10.152;2023-04-15T06:14:26;8.00;;;3.15;;
30303;SDS011;17112;48.636;10.152;2023-04-15T06:16:51;9.32;;;2.80;;
30303;SDS011;17112;48.636;10.152;2023-04-15T06:19:17;8.30;;;2.60;;
30303;SDS011;17112;48.636;10.152;2023-04-15T06:21:43;5.10;;;2.05;;
30303;SDS011;17112;48.636;10.152;2023-04-15T06:24:10;7.65;;;2.25;;
30303;SDS011;17112;48.636;10.152;2023-04-15T06:26:36;2.92;;;2.03;;
30303;SDS011;17112;48.636;10.152;2023-04-15T06:29:01;6.15;;;2.22;;
30303;SDS011;17112;48.636;10.152;2023-04-15T06:31:27;7.15;;;2.38;;
30303;SDS011;17112;48.636;10.152;2023-04-15T06:33:53;6.25;;;2.30;;
30303;SDS011;17112;48.636;10.152;2023-04-15T06:36:18;10.50;;;2.22;;
30303;SDS011;17112;48.636;10.152;2023-04-15T06:38:44;4.47;;;2.38;;
30303;SDS011;17112;48.636;10.152;2023-04-15T06:41:11;4.30;;;2.40;;
30303;SDS011;17112;48.636;10.152;2023-04-15T06:43:37;7.72;;;2.83;;
30303;SDS011;17112;48.636;10.152;2023-04-15T06:46:03;3.47;;;1.85;;
30303;SDS011;17112;48.636;10.152;2023-04-15T06:48:29;7.00;;;2.25;;
30303;SDS011;17112;48.636;10.152;2023-04-15T06:50:55;6.63;;;2.13;;
30303;SDS011;17112;48.636;10.152;2023-04-15T06:53:22;6.05;;;2.00;;
30303;SDS011;17112;48.636;10.152;2023-04-15T06:55:51;5.55;;;3.28;;
30303;SDS011;17112;48.636;10.152;2023-04-15T06:58:17;4.93;;;2.65;;
30303;SDS011;17112;48.636;10.152;2023-04-15T07:00:43;8.77;;;3.75;;
30303;SDS011;17112;48.636;10.152;2023-04-15T07:03:09;7.88;;;3.00;;
30303;SDS011;17112;48.636;10.152;2023-04-15T07:05:36;5.70;;;2.75;;
30303;SDS011;17112;48.636;10.152;2023-04-15T07:08:03;4.75;;;2.00;;
30303;SDS011;17112;48.636;10.152;2023-04-15T07:10:28;6.82;;;1.90;;
30303;SDS011;17112;48.636;10.152;2023-04-15T07:12:55;5.03;;;1.90;;
30303;SDS011;17112;48.636;10.152;2023-04-15T07:15:21;4.47;;;1.83;;
30303;SDS011;17112;48.636;10.152;2023-04-15T07:17:47;5.70;;;2.28;;
30303;SDS011;17112;48.636;10.152;2023-04-15T07:20:13;8.75;;;2.20;;
30303;SDS011;17112;48.636;10.152;2023-04-15T07:22:39;2.13;;;1.67;;
30303;SDS011;17112;48.636;10.152;2023-04-15T07:25:05;3.67;;;2.40;;
30303;SDS011;17112;48.636;10.152;2023-04-15T07:27:31;3.97;;;2.22;;
30303;SDS011;17112;48.636;10.152;2023-04-15T07:29:57;6.30;;;2.50;;
30303;SDS011;17112;48.636;10.152;2023-04-15T07:32:23;7.25;;;2.05;;
30303;SDS011;17112;48.636;10.152;2023-04-15T07:34:48;3.55;;;2.20;;
30303;SDS011;17112;48.636;10.152;2023-04-15T07:37:14;5.13;;;2.22;;
30303;SDS011;17112;48.636;10.152;2023-04-15T07:39:40;5.75;;;2.10;;
30303;SDS011;17112;48.636;10.152;2023-04-15T07:42:06;3.80;;;1.70;;
30303;SDS011;17112;48.636;10.152;2023-04-15T07:44:32;5.35;;;1.48;;
30303;SDS011;17112;48.636;10.152;2023-04-15T07:46:58;2.25;;;1.30;;
30303;SDS011;17112;48.636;10.152;2023-04-15T07:49:23;3.42;;;1.38;;
30303;SDS011;17112;48.636;10.152;2023-04-15T07:51:49;7.75;;;1.60;;
30303;SDS011;17112;48.636;10.152;2023-04-15T07:54:15;4.13;;;1.50;;
30303;SDS011;17112;48.636;10.152;2023-04-15T07:56:41;8.15;;;2.00;;
30303;SDS011;17112;48.636;10.152;2023-04-15T07:59:07;10.57;;;1.73;;
30303;SDS011;17112;48.636;10.152;2023-04-15T08:01:33;7.25;;;1.42;;
30303;SDS011;17112;48.636;10.152;2023-04-15T08:03:59;3.55;;;1.30;;
30303;SDS011;17112;48.636;10.152;2023-04-15T08:06:25;3.45;;;1.33;;
30303;SDS011;17112;48.636;10.152;2023-04-15T08:08:51;5.00;;;1.45;;
30303;SDS011;17112;48.636;10.152;2023-04-15T08:11:18;4.82;;;1.60;;
30303;SDS011;17112;48.636;10.152;2023-04-15T08:13:45;7.90;;;1.55;;
30303;SDS011;17112;48.636;10.152;2023-04-15T08:18:45;4.38;;;1.40;;
30303;SDS011;17112;48.636;10.152;2023-04-15T08:21:11;4.15;;;1.65;;
30303;SDS011;17112;48.636;10.152;2023-04-15T08:23:37;6.22;;;1.55;;
30303;SDS011;17112;48.636;10.152;2023-04-15T08:26:04;5.85;;;2.35;;
30303;SDS011;17112;48.636;10.152;2023-04-15T08:28:30;4.85;;;1.88;;
30303;SDS011;17112;48.636;10.152;2023-04-15T08:30:55;8.40;;;1.80;;
30303;SDS011;17112;48.636;10.152;2023-04-15T08:33:21;4.70;;;2.10;;
30303;SDS011;17112;48.636;10.152;2023-04-15T08:35:47;4.97;;;1.38;;
30303;SDS011;17112;48.636;10.152;2023-04-15T08:38:13;2.47;;;1.45;;
30303;SDS011;17112;48.636;10.152;2023-04-15T08:40:45;2.80;;;1.30;;
30303;SDS011;17112;48.636;10.152;2023-04-15T08:43:46;5.13;;;1.52;;
30303;SDS011;17112;48.636;10.152;2023-04-15T08:46:08;9.93;;;1.70;;
30303;SDS011;17112;48.636;10.152;2023-04-15T08:48:35;3.92;;;1.52;;
30303;SDS011;17112;48.636;10.152;2023-04-15T08:51:03;2.75;;;1.35;;
30303;SDS011;17112;48.636;10.152;2023-04-15T08:53:29;4.78;;;1.77;;
30303;SDS011;17112;48.636;10.152;2023-04-15T08:55:55;6.78;;;1.70;;
30303;SDS011;17112;48.636;10.152;2023-04-15T08:58:22;5.90;;;2.75;;
30303;SDS011;17112;48.636;10.152;2023-04-15T09:00:49;5.70;;;1.50;;
30303;SDS011;17112;48.636;10.152;2023-04-15T09:03:15;3.85;;;1.50;;
30303;SDS011;17112;48.636;10.152;2023-04-15T09:05:41;3.88;;;1.58;;
30303;SDS011;17112;48.636;10.152;2023-04-15T09:08:07;3.20;;;1.30;;
30303;SDS011;17112;48.636;10.152;2023-04-15T09:10:33;9.55;;;1.90;;
30303;SDS011;17112;48.636;10.152;2023-04-15T09:12:59;3.92;;;1.30;;
30303;SDS011;17112;48.636;10.152;2023-04-15T09:15:26;3.45;;;1.20;;
30303;SDS011;17112;48.636;10.152;2023-04-15T09:17:53;6.65;;;1.55;;
30303;SDS011;17112;48.636;10.152;2023-04-15T09:20:20;2.38;;;1.20;;
30303;SDS011;17112;48.636;10.152;2023-04-15T09:22:46;2.80;;;1.38;;
30303;SDS011;17112;48.636;10.152;2023-04-15T09:27:48;5.05;;;1.75;;
30303;SDS011;17112;48.636;10.152;2023-04-15T09:30:16;3.58;;;1.55;;
30303;SDS011;17112;48.636;10.152;2023-04-15T09:32:54;3.67;;;1.50;;
30303;SDS011;17112;48.636;10.152;2023-04-15T09:35:23;3.95;;;1.38;;
30303;SDS011;17112;48.636;10.152;2023-04-15T09:37:50;7.22;;;1.58;;
30303;SDS011;17112;48.636;10.152;2023-04-15T09:40:35;7.10;;;1.90;;
30303;SDS011;17112;48.636;10.152;2023-04-15T09:43:06;4.10;;;1.40;;
30303;SDS011;17112;48.636;10.152;2023-04-15T09:45:36;3.00;;;2.22;;
30303;SDS011;17112;48.636;10.152;2023-04-15T09:48:20;3.40;;;2.20;;
30303;SDS011;17112;48.636;10.152;2023-04-15T09:50:48;4.30;;;2.13;;
30303;SDS011;17112;48.636;10.152;2023-04-15T09:53:18;6.32;;;1.67;;
30303;SDS011;17112;48.636;10.152;2023-04-15T09:55:48;3.42;;;1.70;;
30303;SDS011;17112;48.636;10.152;2023-04-15T09:58:22;3.83;;;2.05;;
30303;SDS011;17112;48.636;10.152;2023-04-15T10:03:17;11.55;;;2.38;;
30303;SDS011;17112;48.636;10.152;2023-04-15T10:06:02;4.35;;;1.90;;
30303;SDS011;17112;48.636;10.152;2023-04-15T10:08:29;3.33;;;1.95;;
30303;SDS011;17112;48.636;10.152;2023-04-15T10:10:57;4.75;;;1.95;;
30303;SDS011;17112;48.636;10.152;2023-04-15T10:13:25;3.50;;;2.08;;
30303;SDS011;17112;48.636;10.152;2023-04-15T10:18:34;6.35;;;2.30;;
30303;SDS011;17112;48.636;10.152;2023-04-15T10:21:02;4.25;;;2.17;;
30303;SDS011;17112;48.636;10.152;2023-04-15T10:23:31;3.13;;;1.95;;
30303;SDS011;17112;48.636;10.152;2023-04-15T10:25:57;5.78;;;2.30;;
30303;SDS011;17112;48.636;10.152;2023-04-15T10:28:23;3.25;;;1.88;;
30303;SDS011;17112;48.636;10.152;2023-04-15T10:30:51;6.13;;;2.30;;
30303;SDS011;17112;48.636;10.152;2023-04-15T10:33:19;4.15;;;1.75;;
30303;SDS011;17112;48.636;10.152;2023-04-15T10:35:47;4.95;;;2.20;;
30303;SDS011;17112;48.636;10.152;2023-04-15T10:38:31;6.53;;;2.55;;
30303;SDS011;17112;48.636;10.152;2023-04-15T10:41:21;2.58;;;2.00;;
30303;SDS011;17112;48.636;10.152;2023-04-15T10:43:51;3.60;;;2.30;;
30303;SDS011;17112;48.636;10.152;2023-04-15T10:46:21;4.40;;;2.38;;
30303;SDS011;17112;48.636;10.152;2023-04-15T10:49:05;6.18;;;2.42;;
30303;SDS011;17112;48.636;10.152;2023-04-15T10:51:33;4.70;;;2.53;;
30303;SDS011;17112;48.636;10.152;2023-04-15T10:54:07;6.30;;;2.70;;
30303;SDS011;17112;48.636;10.152;2023-04-15T10:56:50;5.10;;;2.38;;
30303;SDS011;17112;48.636;10.152;2023-04-15T10:59:37;8.75;;;2.90;;
30303;SDS011;17112;48.636;10.152;2023-04-15T11:05:05;8.32;;;2.55;;
30303;SDS011;17112;48.636;10.152;2023-04-15T11:12:37;5.78;;;2.30;;
30303;SDS011;17112;48.636;10.152;2023-04-15T11:15:47;6.60;;;2.47;;
30303;SDS011;17112;48.636;10.152;2023-04-15T11:18:08;5.68;;;2.28;;
30303;SDS011;17112;48.636;10.152;2023-04-15T11:20:40;6.85;;;3.17;;
30303;SDS011;17112;48.636;10.152;2023-04-15T11:23:08;6.68;;;2.75;;
30303;SDS011;17112;48.636;10.152;2023-04-15T11:25:35;7.35;;;2.40;;
30303;SDS011;17112;48.636;10.152;2023-04-15T11:28:04;9.07;;;2.13;;
30303;SDS011;17112;48.636;10.152;2023-04-15T11:30:31;4.47;;;2.40;;
30303;SDS011;17112;48.636;10.152;2023-04-15T11:32:59;4.63;;;2.00;;
30303;SDS011;17112;48.636;10.152;2023-04-15T11:35:29;5.80;;;2.08;;
30303;SDS011;17112;48.636;10.152;2023-04-15T11:37:55;5.65;;;2.30;;
30303;SDS011;17112;48.636;10.152;2023-04-15T11:40:24;8.40;;;2.40;;
30303;SDS011;17112;48.636;10.152;2023-04-15T11:43:03;9.40;;;2.67;;
30303;SDS011;17112;48.636;10.152;2023-04-15T11:45:29;11.07;;;2.90;;
30303;SDS011;17112;48.636;10.152;2023-04-15T11:48:03;7.22;;;2.55;;
30303;SDS011;17112;48.636;10.152;2023-04-15T11:50:30;5.47;;;2.20;;
30303;SDS011;17112;48.636;10.152;2023-04-15T11:52:56;4.72;;;2.00;;
30303;SDS011;17112;48.636;10.152;2023-04-15T11:55:23;5.25;;;2.08;;
30303;SDS011;17112;48.636;10.152;2023-04-15T11:58:04;5.60;;;2.20;;
30303;SDS011;17112;48.636;10.152;2023-04-15T12:00:41;5.22;;;2.00;;
30303;SDS011;17112;48.636;10.152;2023-04-15T12:11:19;6.05;;;2.25;;
30303;SDS011;17112;48.636;10.152;2023-04-15T12:13:52;5.32;;;1.73;;
30303;SDS011;17112;48.636;10.152;2023-04-15T12:16:21;2.83;;;1.58;;
30303;SDS011;17112;48.636;10.152;2023-04-15T12:18:54;2.83;;;1.40;;
30303;SDS011;17112;48.636;10.152;2023-04-15T12:21:24;5.17;;;1.97;;
30303;SDS011;17112;48.636;10.152;2023-04-15T12:23:52;2.60;;;1.33;;
30303;SDS011;17112;48.636;10.152;2023-04-15T12:26:26;3.55;;;1.50;;
30303;SDS011;17112;48.636;10.152;2023-04-15T12:29:12;3.30;;;1.50;;
30303;SDS011;17112;48.636;10.152;2023-04-15T12:31:48;3.33;;;1.48;;
30303;SDS011;17112;48.636;10.152;2023-04-15T12:34:40;6.00;;;1.98;;
30303;SDS011;17112;48.636;10.152;2023-04-15T12:37:06;2.03;;;1.48;;
30303;SDS011;17112;48.636;10.152;2023-04-15T12:39:37;4.80;;;1.30;;
30303;SDS011;17112;48.636;10.152;2023-04-15T12:42:04;2.35;;;1.40;;
30303;SDS011;17112;48.636;10.152;2023-04-15T12:44:30;3.80;;;1.45;;
30303;SDS011;17112;48.636;10.152;2023-04-15T12:46:57;2.03;;;1.50;;
30303;SDS011;17112;48.636;10.152;2023-04-15T12:49:23;5.25;;;1.38;;
30303;SDS011;17112;48.636;10.152;2023-04-15T12:52:00;3.03;;;1.38;;
30303;SDS011;17112;48.636;10.152;2023-04-15T12:54:26;3.42;;;1.17;;
30303;SDS011;17112;48.636;10.152;2023-04-15T12:56:52;2.35;;;1.00;;
30303;SDS011;17112;48.636;10.152;2023-04-15T12:59:19;2.72;;;1.05;;
30303;SDS011;17112;48.636;10.152;2023-04-15T13:01:46;2.83;;;1.20;;
30303;SDS011;17112;48.636;10.152;2023-04-15T13:04:12;1.65;;;1.02;;
30303;SDS011;17112;48.636;10.152;2023-04-15T13:06:39;3.58;;;1.35;;
30303;SDS011;17112;48.636;10.152;2023-04-15T13:09:05;2.95;;;1.00;;
30303;SDS011;17112;48.636;10.152;2023-04-15T13:11:31;2.30;;;1.10;;
30303;SDS011;17112;48.636;10.152;2023-04-15T13:14:01;1.92;;;1.17;;
30303;SDS011;17112;48.636;10.152;2023-04-15T13:16:31;3.03;;;1.30;;
30303;SDS011;17112;48.636;10.152;2023-04-15T13:18:58;3.75;;;1.33;;
30303;SDS011;17112;48.636;10.152;2023-04-15T13:21:24;2.53;;;1.10;;
30303;SDS011;17112;48.636;10.152;2023-04-15T13:23:51;3.30;;;1.20;;
30303;SDS011;17112;48.636;10.152;2023-04-15T13:26:17;2.25;;;1.00;;
30303;SDS011;17112;48.636;10.152;2023-04-15T13:28:43;3.60;;;1.30;;
30303;SDS011;17112;48.636;10.152;2023-04-15T13:31:08;3.30;;;1.40;;
30303;SDS011;17112;48.636;10.152;2023-04-15T13:33:34;2.33;;;1.20;;
30303;SDS011;17112;48.636;10.152;2023-04-15T13:36:00;1.58;;;1.08;;
30303;SDS011;17112;48.636;10.152;2023-04-15T13:38:26;1.73;;;0.90;;
30303;SDS011;17112;48.636;10.152;2023-04-15T13:40:51;4.30;;;1.23;;
30303;SDS011;17112;48.636;10.152;2023-04-15T13:43:17;3.03;;;1.10;;
30303;SDS011;17112;48.636;10.152;2023-04-15T13:45:43;3.03;;;1.20;;
30303;SDS011;17112;48.636;10.152;2023-04-15T13:48:09;4.78;;;1.35;;
30303;SDS011;17112;48.636;10.152;2023-04-15T13:50:34;3.33;;;1.35;;
30303;SDS011;17112;48.636;10.152;2023-04-15T13:53:00;3.25;;;1.40;;
30303;SDS011;17112;48.636;10.152;2023-04-15T13:55:26;5.47;;;1.35;;
30303;SDS011;17112;48.636;10.152;2023-04-15T13:57:52;1.95;;;1.10;;
30303;SDS011;17112;48.636;10.152;2023-04-15T14:00:17;2.00;;;1.40;;
30303;SDS011;17112;48.636;10.152;2023-04-15T14:02:43;2.55;;;1.40;;
30303;SDS011;17112;48.636;10.152;2023-04-15T14:05:09;2.20;;;1.20;;
30303;SDS011;17112;48.636;10.152;2023-04-15T14:07:35;3.92;;;1.30;;
30303;SDS011;17112;48.636;10.152;2023-04-15T14:10:01;3.53;;;1.85;;
30303;SDS011;17112;48.636;10.152;2023-04-15T14:12:27;2.17;;;1.25;;
30303;SDS011;17112;48.636;10.152;2023-04-15T14:14:53;2.58;;;1.08;;
30303;SDS011;17112;48.636;10.152;2023-04-15T14:17:19;2.17;;;1.00;;
30303;SDS011;17112;48.636;10.152;2023-04-15T14:19:44;3.53;;;1.30;;
30303;SDS011;17112;48.636;10.152;2023-04-15T14:22:10;4.25;;;1.35;;
30303;SDS011;17112;48.636;10.152;2023-04-15T14:24:36;4.18;;;1.33;;
30303;SDS011;17112;48.636;10.152;2023-04-15T14:27:02;5.18;;;1.25;;
30303;SDS011;17112;48.636;10.152;2023-04-15T14:29:27;5.20;;;1.27;;
30303;SDS011;17112;48.636;10.152;2023-04-15T14:31:53;1.88;;;0.90;;
30303;SDS011;17112;48.636;10.152;2023-04-15T14:34:21;2.25;;;0.80;;
30303;SDS011;17112;48.636;10.152;2023-04-15T14:36:49;2.38;;;0.90;;
30303;SDS011;17112;48.636;10.152;2023-04-15T14:39:17;2.70;;;0.90;;
30303;SDS011;17112;48.636;10.152;2023-04-15T14:41:43;1.85;;;0.90;;
30303;SDS011;17112;48.636;10.152;2023-04-15T14:44:09;4.72;;;0.98;;
30303;SDS011;17112;48.636;10.152;2023-04-15T14:46:36;3.97;;;1.17;;
30303;SDS011;17112;48.636;10.152;2023-04-15T14:49:02;2.75;;;1.00;;
30303;SDS011;17112;48.636;10.152;2023-04-15T14:51:28;3.78;;;1.50;;
30303;SDS011;17112;48.636;10.152;2023-04-15T14:53:55;2.33;;;1.00;;
30303;SDS011;17112;48.636;10.152;2023-04-15T14:56:20;6.18;;;0.80;;
30303;SDS011;17112;48.636;10.152;2023-04-15T14:58:46;3.15;;;1.00;;
30303;SDS011;17112;48.636;10.152;2023-04-15T15:01:13;4.03;;;1.92;;